createdAt,value
2018-05-19T00:00:58.005Z,0
2018-05-19T00:01:59.393Z,0
2018-05-19T00:03:00.783Z,0
2018-05-19T00:04:02.177Z,0
2018-05-19T00:05:03.578Z,0
2018-05-19T00:06:04.968Z,0
2018-05-19T00:07:06.356Z,0
2018-05-19T00:08:07.756Z,0
2018-05-19T00:09:09.146Z,0
2018-05-19T00:10:10.548Z,0
2018-05-19T00:11:11.939Z,0
2018-05-19T00:12:13.328Z,0
2018-05-19T00:13:14.721Z,0
2018-05-19T00:14:16.114Z,0
2018-05-19T00:15:17.512Z,0
2018-05-19T00:16:18.900Z,0
2018-05-19T00:17:20.291Z,0
2018-05-19T00:18:21.680Z,0
2018-05-19T00:19:23.068Z,0
2018-05-19T00:20:24.460Z,0
2018-05-19T00:21:25.848Z,0
2018-05-19T00:22:27.246Z,0
2018-05-19T00:23:28.637Z,0
2018-05-19T00:24:30.024Z,0
2018-05-19T00:25:31.448Z,0
2018-05-19T00:26:32.835Z,0
2018-05-19T00:27:34.225Z,0
2018-05-19T00:28:35.613Z,0
2018-05-19T00:29:37.007Z,0
2018-05-19T00:30:38.399Z,0
2018-05-19T00:31:39.791Z,0
2018-05-19T00:32:41.197Z,0
2018-05-19T00:33:42.588Z,0
2018-05-19T00:34:43.988Z,0
2018-05-19T00:35:45.369Z,0
2018-05-19T00:36:46.758Z,0
2018-05-19T00:37:48.148Z,0
2018-05-19T00:38:49.534Z,0
2018-05-19T00:39:50.926Z,0
2018-05-19T00:40:52.313Z,0
2018-05-19T00:41:53.705Z,0
2018-05-19T00:42:55.216Z,0
2018-05-19T00:43:56.628Z,0
2018-05-19T00:44:58.017Z,0
2018-05-19T00:45:59.407Z,0
2018-05-19T00:47:00.796Z,0
2018-05-19T00:48:02.197Z,0
2018-05-19T00:49:03.594Z,0
2018-05-19T00:50:04.985Z,0
2018-05-19T00:51:06.370Z,0
2018-05-19T00:52:07.758Z,0
2018-05-19T00:53:09.150Z,0
2018-05-19T00:54:10.540Z,0
2018-05-19T00:55:11.951Z,0
2018-05-19T00:56:13.340Z,0
2018-05-19T00:57:14.730Z,0
2018-05-19T00:58:16.118Z,0
2018-05-19T00:59:17.521Z,0
2018-05-19T01:00:18.909Z,0
2018-05-19T01:01:20.300Z,0
2018-05-19T01:02:21.721Z,0
2018-05-19T01:03:23.107Z,0
2018-05-19T01:04:24.493Z,0
2018-05-19T01:05:25.883Z,0
2018-05-19T01:06:27.276Z,0
2018-05-19T01:07:28.665Z,0
2018-05-19T01:08:30.081Z,0
2018-05-19T01:09:31.473Z,0
2018-05-19T01:10:32.867Z,0
2018-05-19T01:11:34.310Z,0
2018-05-19T01:12:35.648Z,0
2018-05-19T01:13:37.035Z,0
2018-05-19T01:14:38.426Z,0
2018-05-19T01:15:39.816Z,0
2018-05-19T01:16:41.207Z,0
2018-05-19T01:17:42.623Z,0
2018-05-19T01:18:44.011Z,0
2018-05-19T01:19:45.403Z,0
2018-05-19T01:20:46.792Z,0
2018-05-19T01:21:48.181Z,0
2018-05-19T01:22:49.576Z,0
2018-05-19T01:23:50.962Z,0
2018-05-19T01:24:52.359Z,0
2018-05-19T01:25:53.738Z,0
2018-05-19T01:26:55.128Z,0
2018-05-19T01:27:56.512Z,0
2018-05-19T01:28:57.899Z,0
2018-05-19T01:29:59.290Z,0
2018-05-19T01:31:00.677Z,0
2018-05-19T01:32:02.172Z,0
2018-05-19T01:33:03.531Z,0
2018-05-19T01:34:04.915Z,0
2018-05-19T01:35:06.312Z,0
2018-05-19T01:36:07.700Z,0
2018-05-19T01:37:09.090Z,0
2018-05-19T01:38:10.483Z,0
2018-05-19T01:39:11.892Z,0
2018-05-19T01:40:13.282Z,0
2018-05-19T01:41:14.671Z,0
2018-05-19T01:42:16.066Z,0
2018-05-19T01:43:17.455Z,0
2018-05-19T01:44:18.841Z,0
2018-05-19T01:45:20.232Z,0
2018-05-19T01:46:21.622Z,0
2018-05-19T01:47:23.010Z,0
2018-05-19T01:48:24.396Z,0
2018-05-19T01:49:25.784Z,0
2018-05-19T01:50:27.177Z,0
2018-05-19T01:51:28.567Z,0
2018-05-19T01:52:29.965Z,0
2018-05-19T01:53:31.350Z,0
2018-05-19T01:54:32.737Z,0
2018-05-19T01:55:34.128Z,0
2018-05-19T01:56:35.518Z,0
2018-05-19T01:57:36.918Z,0
2018-05-19T01:58:38.312Z,0
2018-05-19T01:59:39.700Z,0
2018-05-19T02:00:41.092Z,0
2018-05-19T02:01:42.479Z,0
2018-05-19T02:02:43.863Z,0
2018-05-19T02:03:45.254Z,0
2018-05-19T02:04:46.648Z,0
2018-05-19T02:05:48.032Z,0
2018-05-19T02:06:49.437Z,0
2018-05-19T02:07:50.830Z,0
2018-05-19T02:08:52.216Z,0
2018-05-19T02:09:53.604Z,0
2018-05-19T02:10:54.991Z,0
2018-05-19T02:11:56.385Z,0
2018-05-19T02:12:57.772Z,0
2018-05-19T02:13:59.162Z,0
2018-05-19T02:15:00.553Z,0
2018-05-19T02:16:01.964Z,0
2018-05-19T02:17:03.348Z,0
2018-05-19T02:18:04.739Z,0
2018-05-19T02:19:06.128Z,0
2018-05-19T02:20:07.527Z,0
2018-05-19T02:21:08.912Z,0
2018-05-19T02:22:10.363Z,0
2018-05-19T02:23:11.784Z,0
2018-05-19T02:24:13.171Z,0
2018-05-19T02:25:14.562Z,0
2018-05-19T02:26:15.952Z,0
2018-05-19T02:27:17.346Z,0
2018-05-19T02:28:18.734Z,0
2018-05-19T02:29:20.124Z,0
2018-05-19T02:30:21.509Z,0
2018-05-19T02:31:22.895Z,0
2018-05-19T02:32:24.291Z,0
2018-05-19T02:33:25.671Z,0
2018-05-19T02:34:27.063Z,0
2018-05-19T02:35:28.452Z,0
2018-05-19T02:36:29.841Z,0
2018-05-19T02:37:31.227Z,0
2018-05-19T02:38:32.609Z,0
2018-05-19T02:39:33.998Z,0
2018-05-19T02:40:35.384Z,0
2018-05-19T02:41:36.772Z,0
2018-05-19T02:42:38.157Z,0
2018-05-19T02:43:39.546Z,0
2018-05-19T02:44:40.942Z,0
2018-05-19T02:45:42.322Z,0
2018-05-19T02:46:43.708Z,0
2018-05-19T02:47:45.100Z,0
2018-05-19T02:48:46.493Z,0
2018-05-19T02:49:47.893Z,0
2018-05-19T02:50:49.281Z,0
2018-05-19T02:51:50.667Z,0
2018-05-19T02:52:52.056Z,0
2018-05-19T02:53:53.441Z,0
2018-05-19T02:54:54.832Z,0
2018-05-19T02:55:56.213Z,0
2018-05-19T02:56:57.614Z,0
2018-05-19T02:57:59.004Z,0
2018-05-19T02:59:00.389Z,0
2018-05-19T03:00:01.777Z,0
2018-05-19T03:01:03.170Z,0
2018-05-19T03:02:04.553Z,0
2018-05-19T03:03:05.947Z,0
2018-05-19T03:04:07.363Z,0
2018-05-19T03:05:08.753Z,0
2018-05-19T03:06:10.157Z,0
2018-05-19T03:07:11.527Z,4
2018-05-19T03:08:12.917Z,4
2018-05-19T03:09:14.303Z,0
2018-05-19T03:10:15.689Z,0
2018-05-19T03:11:17.134Z,0
2018-05-19T03:12:18.551Z,0
2018-05-19T03:13:19.937Z,4
2018-05-19T03:14:21.327Z,4
2018-05-19T03:15:22.713Z,4
2018-05-19T03:16:24.102Z,4
2018-05-19T03:17:25.503Z,4
2018-05-19T03:18:26.891Z,8
2018-05-19T03:19:28.278Z,4
2018-05-19T03:20:29.666Z,8
2018-05-19T03:21:31.053Z,4
2018-05-19T03:22:32.439Z,8
2018-05-19T03:23:33.826Z,8
2018-05-19T03:24:35.215Z,12
2018-05-19T03:25:36.606Z,12
2018-05-19T03:26:38.037Z,12
2018-05-19T03:27:39.418Z,16
2018-05-19T03:28:40.807Z,16
2018-05-19T03:29:42.205Z,16
2018-05-19T03:30:43.598Z,20
2018-05-19T03:31:44.985Z,24
2018-05-19T03:32:46.376Z,28
2018-05-19T03:33:47.764Z,28
2018-05-19T03:34:49.150Z,32
2018-05-19T03:35:50.546Z,36
2018-05-19T03:36:51.933Z,40
2018-05-19T03:37:53.323Z,44
2018-05-19T03:38:54.713Z,44
2018-05-19T03:39:56.101Z,52
2018-05-19T03:40:57.489Z,52
2018-05-19T03:41:58.879Z,60
2018-05-19T03:43:00.265Z,64
2018-05-19T03:44:01.653Z,68
2018-05-19T03:45:03.042Z,72
2018-05-19T03:46:04.430Z,80
2018-05-19T03:47:05.828Z,88
2018-05-19T03:48:07.216Z,92
2018-05-19T03:49:08.606Z,96
2018-05-19T03:50:09.993Z,104
2018-05-19T03:51:11.401Z,112
2018-05-19T03:52:12.789Z,116
2018-05-19T03:53:14.178Z,124
2018-05-19T03:54:15.569Z,132
2018-05-19T03:55:16.963Z,140
2018-05-19T03:56:18.350Z,144
2018-05-19T03:57:19.741Z,156
2018-05-19T03:58:21.125Z,164
2018-05-19T03:59:22.513Z,168
2018-05-19T04:00:23.905Z,180
2018-05-19T04:01:25.527Z,188
2018-05-19T04:02:26.922Z,196
2018-05-19T04:03:28.312Z,204
2018-05-19T04:04:29.700Z,212
2018-05-19T04:05:31.096Z,224
2018-05-19T04:06:32.487Z,232
2018-05-19T04:07:33.880Z,240
2018-05-19T04:08:35.269Z,248
2018-05-19T04:09:36.662Z,256
2018-05-19T04:10:38.069Z,272
2018-05-19T04:11:39.456Z,280
2018-05-19T04:12:40.843Z,288
2018-05-19T04:13:42.244Z,300
2018-05-19T04:14:43.625Z,308
2018-05-19T04:15:45.016Z,316
2018-05-19T04:16:46.406Z,328
2018-05-19T04:17:47.796Z,340
2018-05-19T04:18:49.187Z,352
2018-05-19T04:19:50.577Z,364
2018-05-19T04:20:51.965Z,372
2018-05-19T04:21:53.356Z,384
2018-05-19T04:22:54.747Z,396
2018-05-19T04:23:56.148Z,404
2018-05-19T04:24:57.538Z,416
2018-05-19T04:25:58.924Z,432
2018-05-19T04:27:00.316Z,440
2018-05-19T04:28:01.706Z,452
2018-05-19T04:29:03.090Z,464
2018-05-19T04:30:04.485Z,472
2018-05-19T04:31:05.875Z,488
2018-05-19T04:32:07.265Z,500
2018-05-19T04:33:08.653Z,512
2018-05-19T04:34:10.041Z,524
2018-05-19T04:35:11.432Z,536
2018-05-19T04:36:12.831Z,548
2018-05-19T04:37:14.223Z,564
2018-05-19T04:38:15.615Z,576
2018-05-19T04:39:17.005Z,592
2018-05-19T04:40:18.394Z,604
2018-05-19T04:41:19.780Z,612
2018-05-19T04:42:21.176Z,624
2018-05-19T04:43:22.563Z,636
2018-05-19T04:44:23.953Z,648
2018-05-19T04:45:25.345Z,664
2018-05-19T04:46:26.738Z,676
2018-05-19T04:47:28.128Z,684
2018-05-19T04:48:29.517Z,696
2018-05-19T04:49:30.912Z,704
2018-05-19T04:50:32.299Z,712
2018-05-19T04:51:33.716Z,720
2018-05-19T04:52:35.157Z,732
2018-05-19T04:53:36.550Z,740
2018-05-19T04:54:37.935Z,756
2018-05-19T04:55:39.328Z,780
2018-05-19T04:56:40.715Z,808
2018-05-19T04:57:42.107Z,840
2018-05-19T04:58:43.596Z,880
2018-05-19T04:59:44.999Z,916
2018-05-19T05:00:46.380Z,948
2018-05-19T05:01:47.763Z,960
2018-05-19T05:02:49.160Z,972
2018-05-19T05:03:50.655Z,984
2018-05-19T05:04:51.944Z,992
2018-05-19T05:05:53.336Z,1008
2018-05-19T05:06:54.730Z,1016
2018-05-19T05:07:56.121Z,1012
2018-05-19T05:08:57.508Z,976
2018-05-19T05:09:58.898Z,952
2018-05-19T05:11:00.290Z,944
2018-05-19T05:12:01.682Z,948
2018-05-19T05:13:03.068Z,968
2018-05-19T05:14:04.465Z,992
2018-05-19T05:15:05.863Z,1024
2018-05-19T05:16:07.251Z,1064
2018-05-19T05:17:08.639Z,1112
2018-05-19T05:18:10.033Z,1160
2018-05-19T05:19:11.426Z,1212
2018-05-19T05:20:12.822Z,1248
2018-05-19T05:21:14.219Z,1284
2018-05-19T05:22:15.609Z,1300
2018-05-19T05:23:17.003Z,1312
2018-05-19T05:24:18.396Z,1324
2018-05-19T05:25:19.791Z,1340
2018-05-19T05:26:21.180Z,1356
2018-05-19T05:27:22.581Z,1372
2018-05-19T05:28:23.976Z,1388
2018-05-19T05:29:25.404Z,1392
2018-05-19T05:30:26.763Z,1388
2018-05-19T05:31:28.150Z,1396
2018-05-19T05:32:29.549Z,1404
2018-05-19T05:33:30.943Z,1420
2018-05-19T05:34:32.336Z,1436
2018-05-19T05:35:33.729Z,1468
2018-05-19T05:36:35.118Z,1492
2018-05-19T05:37:36.559Z,1504
2018-05-19T05:38:37.911Z,1524
2018-05-19T05:39:39.303Z,1544
2018-05-19T05:40:40.847Z,1572
2018-05-19T05:41:42.274Z,1592
2018-05-19T05:42:43.671Z,1624
2018-05-19T05:43:45.061Z,1644
2018-05-19T05:44:46.452Z,1660
2018-05-19T05:45:47.845Z,1672
2018-05-19T05:46:49.240Z,1684
2018-05-19T05:47:50.693Z,1692
2018-05-19T05:48:52.090Z,1704
2018-05-19T05:49:53.484Z,1716
2018-05-19T05:50:54.876Z,1720
2018-05-19T05:51:56.273Z,1732
2018-05-19T05:52:57.675Z,1752
2018-05-19T05:53:59.068Z,1776
2018-05-19T05:55:00.463Z,1796
2018-05-19T05:56:01.856Z,1812
2018-05-19T05:57:03.256Z,1832
2018-05-19T05:58:04.647Z,1852
2018-05-19T05:59:06.067Z,1864
2018-05-19T06:00:07.461Z,1872
2018-05-19T06:01:08.957Z,1884
2018-05-19T06:02:10.233Z,1900
2018-05-19T06:03:11.626Z,1928
2018-05-19T06:04:13.021Z,1968
2018-05-19T06:05:14.416Z,2004
2018-05-19T06:06:15.880Z,2032
2018-05-19T06:07:17.200Z,2048
2018-05-19T06:08:18.599Z,2064
2018-05-19T06:09:20.002Z,2076
2018-05-19T06:10:21.396Z,2104
2018-05-19T06:11:22.790Z,2132
2018-05-19T06:12:24.184Z,2152
2018-05-19T06:13:25.579Z,2176
2018-05-19T06:14:26.976Z,2212
2018-05-19T06:15:28.374Z,2248
2018-05-19T06:16:29.768Z,2264
2018-05-19T06:17:31.183Z,2260
2018-05-19T06:18:32.629Z,2264
2018-05-19T06:19:34.009Z,2280
2018-05-19T06:20:35.403Z,2312
2018-05-19T06:21:36.799Z,2344
2018-05-19T06:22:38.192Z,2364
2018-05-19T06:23:39.588Z,2372
2018-05-19T06:24:41.005Z,2384
2018-05-19T06:25:42.398Z,2396
2018-05-19T06:26:43.792Z,2392
2018-05-19T06:27:45.182Z,2368
2018-05-19T06:28:46.591Z,2360
2018-05-19T06:29:48.019Z,2372
2018-05-19T06:30:49.445Z,2392
2018-05-19T06:31:50.850Z,2424
2018-05-19T06:32:52.306Z,2460
2018-05-19T06:33:53.718Z,2508
2018-05-19T06:34:55.119Z,2560
2018-05-19T06:35:56.527Z,2616
2018-05-19T06:36:57.928Z,2664
2018-05-19T06:37:59.373Z,2712
2018-05-19T06:39:00.782Z,2748
2018-05-19T06:40:02.203Z,2772
2018-05-19T06:41:03.591Z,2824
2018-05-19T06:42:05.000Z,2900
2018-05-19T06:43:06.401Z,2960
2018-05-19T06:44:07.845Z,2996
2018-05-19T06:45:09.250Z,3032
2018-05-19T06:46:10.676Z,3084
2018-05-19T06:47:12.082Z,3156
2018-05-19T06:48:13.548Z,3208
2018-05-19T06:49:14.869Z,3236
2018-05-19T06:50:16.261Z,3264
2018-05-19T06:51:17.688Z,3312
2018-05-19T06:52:19.090Z,3396
2018-05-19T06:53:20.483Z,3404
2018-05-19T06:54:21.881Z,3384
2018-05-19T06:55:23.325Z,3372
2018-05-19T06:56:24.721Z,3432
2018-05-19T06:57:26.116Z,3532
2018-05-19T06:58:27.511Z,3636
2018-05-19T06:59:28.909Z,3608
2018-05-19T07:00:30.305Z,3680
2018-05-19T07:01:31.705Z,3616
2018-05-19T07:02:33.181Z,3532
2018-05-19T07:03:34.496Z,3556
2018-05-19T07:04:35.900Z,3668
2018-05-19T07:05:37.296Z,3644
2018-05-19T07:06:38.693Z,3724
2018-05-19T07:07:40.133Z,3628
2018-05-19T07:08:41.531Z,3756
2018-05-19T07:09:42.938Z,3684
2018-05-19T07:10:44.379Z,3760
2018-05-19T07:11:45.764Z,3740
2018-05-19T07:12:47.159Z,3492
2018-05-19T07:13:48.564Z,3512
2018-05-19T07:14:49.966Z,3504
2018-05-19T07:15:51.352Z,3456
2018-05-19T07:16:52.749Z,3416
2018-05-19T07:17:54.354Z,3452
2018-05-19T07:18:55.981Z,3572
2018-05-19T07:19:57.636Z,3676
2018-05-19T07:20:59.390Z,3940
2018-05-19T07:22:01.083Z,4076
2018-05-19T07:23:02.736Z,4044
2018-05-19T07:24:04.135Z,4240
2018-05-19T07:25:05.528Z,4540
2018-05-19T07:26:07.233Z,4472
2018-05-19T07:27:08.727Z,4368
2018-05-19T07:28:10.254Z,4400
2018-05-19T07:29:11.964Z,4520
2018-05-19T07:30:13.559Z,4520
2018-05-19T07:31:15.290Z,4684
2018-05-19T07:32:16.961Z,4720
2018-05-19T07:33:18.596Z,4808
2018-05-19T07:34:19.997Z,4880
2018-05-19T07:35:21.401Z,4976
2018-05-19T07:36:22.824Z,5068
2018-05-19T07:37:24.255Z,5184
2018-05-19T07:38:25.646Z,5028
2018-05-19T07:39:27.041Z,5124
2018-05-19T07:40:28.436Z,5132
2018-05-19T07:41:29.834Z,5224
2018-05-19T07:42:31.230Z,5196
2018-05-19T07:43:32.629Z,5456
2018-05-19T07:44:34.030Z,5548
2018-05-19T07:45:35.422Z,5544
2018-05-19T07:46:36.820Z,5504
2018-05-19T07:47:38.218Z,5536
2018-05-19T07:48:39.615Z,5348
2018-05-19T07:49:41.013Z,5416
2018-05-19T07:50:42.470Z,4956
2018-05-19T07:51:43.810Z,4728
2018-05-19T07:52:45.205Z,4516
2018-05-19T07:53:46.605Z,4484
2018-05-19T07:54:48.005Z,4344
2018-05-19T07:55:49.399Z,4244
2018-05-19T07:56:50.804Z,4040
2018-05-19T07:57:52.195Z,3896
2018-05-19T07:58:53.603Z,3888
2018-05-19T07:59:54.996Z,3896
2018-05-19T08:00:56.441Z,3736
2018-05-19T08:01:57.837Z,3608
2018-05-19T08:03:01.440Z,3548
2018-05-19T08:04:02.831Z,3484
2018-05-19T08:05:04.224Z,3408
2018-05-19T08:06:05.632Z,3324
2018-05-19T08:07:07.019Z,3248
2018-05-19T08:08:08.414Z,3172
2018-05-19T08:09:09.809Z,3144
2018-05-19T08:10:11.208Z,3176
2018-05-19T08:11:12.603Z,3220
2018-05-19T08:12:14.001Z,3272
2018-05-19T08:13:15.403Z,3372
2018-05-19T08:14:16.942Z,3520
2018-05-19T08:15:18.339Z,3652
2018-05-19T08:16:19.737Z,3800
2018-05-19T08:17:21.139Z,3960
2018-05-19T08:18:22.561Z,4112
2018-05-19T08:19:23.961Z,4352
2018-05-19T08:20:25.381Z,4548
2018-05-19T08:21:26.756Z,4752
2018-05-19T08:22:28.229Z,4972
2018-05-19T08:23:29.549Z,4844
2018-05-19T08:24:30.946Z,4800
2018-05-19T08:25:32.343Z,4840
2018-05-19T08:26:33.749Z,4960
2018-05-19T08:27:35.146Z,5176
2018-05-19T08:28:36.694Z,5536
2018-05-19T08:29:37.941Z,5812
2018-05-19T08:30:39.339Z,5804
2018-05-19T08:31:40.733Z,6040
2018-05-19T08:32:42.141Z,6236
2018-05-19T08:33:43.542Z,6320
2018-05-19T08:34:44.948Z,6152
2018-05-19T08:35:46.343Z,6060
2018-05-19T08:36:47.792Z,5964
2018-05-19T08:37:49.185Z,5852
2018-05-19T08:38:50.586Z,5892
2018-05-19T08:39:51.996Z,6260
2018-05-19T08:40:53.384Z,6080
2018-05-19T08:41:54.784Z,6132
2018-05-19T08:42:56.178Z,6596
2018-05-19T08:43:57.572Z,7320
2018-05-19T08:44:59.072Z,7356
2018-05-19T08:46:00.463Z,7444
2018-05-19T08:47:01.858Z,7460
2018-05-19T08:48:03.257Z,7100
2018-05-19T08:49:04.652Z,6988
2018-05-19T08:50:06.063Z,6620
2018-05-19T08:51:07.462Z,6324
2018-05-19T08:52:08.864Z,5844
2018-05-19T08:53:10.260Z,5804
2018-05-19T08:54:11.660Z,5756
2018-05-19T08:55:13.059Z,5760
2018-05-19T08:56:14.458Z,5676
2018-05-19T08:57:15.851Z,5644
2018-05-19T08:58:17.320Z,5392
2018-05-19T08:59:18.648Z,5128
2018-05-19T09:00:20.046Z,5012
2018-05-19T09:01:21.452Z,5080
2018-05-19T09:02:22.880Z,5080
2018-05-19T09:03:24.282Z,4984
2018-05-19T09:04:25.679Z,4924
2018-05-19T09:05:27.077Z,4876
2018-05-19T09:06:28.478Z,4844
2018-05-19T09:07:29.873Z,4852
2018-05-19T09:08:31.272Z,4960
2018-05-19T09:09:32.667Z,5092
2018-05-19T09:10:34.082Z,5144
2018-05-19T09:11:35.480Z,5100
2018-05-19T09:12:36.965Z,5044
2018-05-19T09:13:38.289Z,5004
2018-05-19T09:14:39.687Z,5112
2018-05-19T09:15:41.092Z,5328
2018-05-19T09:16:42.497Z,5980
2018-05-19T09:17:43.896Z,5624
2018-05-19T09:18:45.297Z,5556
2018-05-19T09:19:46.709Z,5448
2018-05-19T09:20:48.107Z,5352
2018-05-19T09:21:49.505Z,5344
2018-05-19T09:22:50.909Z,5496
2018-05-19T09:23:52.303Z,5836
2018-05-19T09:24:53.702Z,5904
2018-05-19T09:25:55.099Z,6080
2018-05-19T09:26:56.496Z,6708
2018-05-19T09:27:57.912Z,8416
2018-05-19T09:28:59.305Z,8340
2018-05-19T09:30:00.702Z,8688
2018-05-19T09:31:02.103Z,8752
2018-05-19T09:32:03.551Z,8724
2018-05-19T09:33:04.988Z,7476
2018-05-19T09:34:06.505Z,6672
2018-05-19T09:35:07.942Z,6404
2018-05-19T09:36:09.339Z,6484
2018-05-19T09:37:10.744Z,7384
2018-05-19T09:38:12.142Z,7516
2018-05-19T09:39:13.542Z,9740
2018-05-19T09:40:14.939Z,9100
2018-05-19T09:41:16.361Z,10528
2018-05-19T09:42:17.785Z,9992
2018-05-19T09:43:19.183Z,10984
2018-05-19T09:44:20.587Z,11232
2018-05-19T09:45:21.984Z,11252
2018-05-19T09:46:23.393Z,11248
2018-05-19T09:47:24.850Z,11176
2018-05-19T09:48:26.198Z,11296
2018-05-19T09:49:27.607Z,11372
2018-05-19T09:50:29.003Z,11500
2018-05-19T09:51:30.402Z,11628
2018-05-19T09:52:31.807Z,11732
2018-05-19T09:53:33.207Z,11836
2018-05-19T09:54:34.611Z,11920
2018-05-19T09:55:36.008Z,10728
2018-05-19T09:56:37.414Z,9836
2018-05-19T09:57:38.822Z,11096
2018-05-19T09:58:40.224Z,10032
2018-05-19T09:59:41.622Z,9288
2018-05-19T10:00:43.029Z,8560
2018-05-19T10:01:44.427Z,8024
2018-05-19T10:02:45.827Z,7684
2018-05-19T10:03:47.249Z,7336
2018-05-19T10:04:48.650Z,6936
2018-05-19T10:05:50.069Z,6616
2018-05-19T10:06:52.066Z,6324
2018-05-19T10:07:53.607Z,6152
2018-05-19T10:08:55.349Z,6164
2018-05-19T10:09:56.816Z,6216
2018-05-19T10:10:58.221Z,6328
2018-05-19T10:11:59.632Z,6420
2018-05-19T10:13:01.036Z,6548
2018-05-19T10:14:02.436Z,6704
2018-05-19T10:15:03.834Z,6780
2018-05-19T10:16:05.544Z,6816
2018-05-19T10:17:07.132Z,6652
2018-05-19T10:18:09.947Z,6452
2018-05-19T10:19:11.483Z,6244
2018-05-19T10:20:13.235Z,6036
2018-05-19T10:21:14.923Z,5852
2018-05-19T10:22:16.524Z,5624
2018-05-19T10:23:17.916Z,5464
2018-05-19T10:24:19.678Z,5384
2018-05-19T10:25:21.225Z,5368
2018-05-19T10:26:22.901Z,5452
2018-05-19T10:27:24.473Z,5496
2018-05-19T10:28:25.854Z,5388
2018-05-19T10:29:27.370Z,5240
2018-05-19T10:30:29.014Z,5136
2018-05-19T10:31:30.383Z,5096
2018-05-19T10:32:31.781Z,5156
2018-05-19T10:33:33.188Z,5256
2018-05-19T10:34:34.588Z,5332
2018-05-19T10:35:36.139Z,5360
2018-05-19T10:36:37.351Z,5368
2018-05-19T10:37:38.751Z,5412
2018-05-19T10:38:40.151Z,5504
2018-05-19T10:39:41.549Z,5712
2018-05-19T10:40:42.947Z,6048
2018-05-19T10:41:44.364Z,6076
2018-05-19T10:42:45.776Z,6092
2018-05-19T10:43:47.180Z,6036
2018-05-19T10:44:48.576Z,5868
2018-05-19T10:45:49.972Z,5824
2018-05-19T10:46:51.561Z,5892
2018-05-19T10:47:53.062Z,6016
2018-05-19T10:48:54.471Z,6220
2018-05-19T10:49:55.870Z,6496
2018-05-19T10:50:57.276Z,6844
2018-05-19T10:51:58.706Z,7476
2018-05-19T10:53:00.113Z,11480
2018-05-19T10:54:01.521Z,17024
2018-05-19T10:55:02.918Z,11608
2018-05-19T10:56:04.323Z,10964
2018-05-19T10:57:05.725Z,10672
2018-05-19T10:58:07.124Z,10820
2018-05-19T10:59:08.598Z,17440
2018-05-19T11:00:09.995Z,13092
2018-05-19T11:01:11.395Z,10392
2018-05-19T11:02:12.795Z,10068
2018-05-19T11:03:14.196Z,10324
2018-05-19T11:04:15.595Z,12860
2018-05-19T11:05:17.037Z,13988
2018-05-19T11:06:18.396Z,12808
2018-05-19T11:07:19.795Z,12680
2018-05-19T11:08:21.219Z,12928
2018-05-19T11:09:22.619Z,10676
2018-05-19T11:10:24.016Z,10020
2018-05-19T11:11:25.418Z,9876
2018-05-19T11:12:26.913Z,10216
2018-05-19T11:13:28.395Z,10452
2018-05-19T11:14:29.921Z,10848
2018-05-19T11:15:31.324Z,10204
2018-05-19T11:16:32.801Z,9892
2018-05-19T11:17:34.261Z,9352
2018-05-19T11:18:35.718Z,8380
2018-05-19T11:19:37.079Z,8192
2018-05-19T11:20:38.478Z,8300
2018-05-19T11:21:39.876Z,8492
2018-05-19T11:22:41.284Z,8728
2018-05-19T11:23:42.684Z,8840
2018-05-19T11:24:44.089Z,9212
2018-05-19T11:25:45.562Z,11652
2018-05-19T11:26:46.905Z,11120
2018-05-19T11:27:48.332Z,11096
2018-05-19T11:28:49.724Z,11860
2018-05-19T11:29:51.128Z,10412
2018-05-19T11:30:52.526Z,9888
2018-05-19T11:31:53.927Z,9404
2018-05-19T11:32:55.330Z,9156
2018-05-19T11:33:56.727Z,9432
2018-05-19T11:34:58.126Z,9248
2018-05-19T11:35:59.522Z,9428
2018-05-19T11:37:00.922Z,9624
2018-05-19T11:38:02.331Z,10112
2018-05-19T11:39:03.738Z,11640
2018-05-19T11:40:05.134Z,19776
2018-05-19T11:41:06.538Z,13100
2018-05-19T11:42:07.940Z,11164
2018-05-19T11:43:09.344Z,13708
2018-05-19T11:44:10.745Z,14588
2018-05-19T11:45:12.261Z,21472
2018-05-19T11:46:13.666Z,17920
2018-05-19T11:47:15.073Z,24672
2018-05-19T11:48:16.477Z,11344
2018-05-19T11:49:17.880Z,9712
2018-05-19T11:50:19.275Z,8764
2018-05-19T11:51:20.675Z,8528
2018-05-19T11:52:22.077Z,8600
2018-05-19T11:53:23.479Z,8044
2018-05-19T11:54:24.877Z,7916
2018-05-19T11:55:26.308Z,7908
2018-05-19T11:56:27.715Z,8152
2018-05-19T11:57:29.111Z,8576
2018-05-19T11:58:30.515Z,8712
2018-05-19T11:59:31.924Z,9456
2018-05-19T12:00:33.330Z,9376
2018-05-19T12:01:34.726Z,9072
2018-05-19T12:02:36.178Z,9376
2018-05-19T12:03:37.523Z,9592
2018-05-19T12:04:38.925Z,10296
2018-05-19T12:05:40.370Z,14968
2018-05-19T12:06:41.727Z,11092
2018-05-19T12:07:43.127Z,11988
2018-05-19T12:08:44.527Z,14516
2018-05-19T12:09:45.929Z,15208
2018-05-19T12:10:47.331Z,8396
2018-05-19T12:11:48.754Z,8184
2018-05-19T12:12:50.130Z,7952
2018-05-19T12:13:51.532Z,7800
2018-05-19T12:14:52.934Z,8004
2018-05-19T12:15:54.330Z,8828
2018-05-19T12:16:55.735Z,11732
2018-05-19T12:17:57.133Z,21216
2018-05-19T12:18:58.533Z,25696
2018-05-19T12:19:59.938Z,24672
2018-05-19T12:21:01.341Z,24672
2018-05-19T12:22:02.743Z,25120
2018-05-19T12:23:04.180Z,25152
2018-05-19T12:24:05.552Z,24800
2018-05-19T12:25:06.966Z,24384
2018-05-19T12:26:08.387Z,23968
2018-05-19T12:27:09.787Z,23456
2018-05-19T12:28:11.196Z,24256
2018-05-19T12:29:12.599Z,23264
2018-05-19T12:30:14.005Z,23904
2018-05-19T12:31:15.404Z,13928
2018-05-19T12:32:16.857Z,15744
2018-05-19T12:33:18.286Z,8840
2018-05-19T12:34:19.697Z,8504
2018-05-19T12:35:21.112Z,8348
2018-05-19T12:36:22.513Z,8024
2018-05-19T12:37:23.915Z,7696
2018-05-19T12:38:25.319Z,7700
2018-05-19T12:39:26.717Z,8224
2018-05-19T12:40:28.120Z,8184
2018-05-19T12:41:29.539Z,7684
2018-05-19T12:42:30.921Z,7392
2018-05-19T12:43:32.325Z,7284
2018-05-19T12:44:33.720Z,7404
2018-05-19T12:45:35.121Z,7652
2018-05-19T12:46:36.520Z,8128
2018-05-19T12:47:37.920Z,8660
2018-05-19T12:48:39.320Z,9096
2018-05-19T12:49:40.722Z,9228
2018-05-19T12:50:42.126Z,9456
2018-05-19T12:51:43.530Z,8796
2018-05-19T12:52:44.933Z,8080
2018-05-19T12:53:46.341Z,8372
2018-05-19T12:54:47.737Z,8744
2018-05-19T12:55:49.139Z,18688
2018-05-19T12:56:50.546Z,24064
2018-05-19T12:57:51.964Z,23680
2018-05-19T12:58:53.363Z,23744
2018-05-19T12:59:54.769Z,24192
2018-05-19T13:00:56.171Z,24448
2018-05-19T13:01:57.576Z,24416
2018-05-19T13:02:58.979Z,24352
2018-05-19T13:04:00.378Z,24416
2018-05-19T13:05:01.780Z,24256
2018-05-19T13:06:03.816Z,24416
2018-05-19T13:07:05.529Z,24256
2018-05-19T13:08:07.147Z,24288
2018-05-19T13:09:08.771Z,23616
2018-05-19T13:10:10.292Z,24704
2018-05-19T13:11:12.153Z,25024
2018-05-19T13:12:14.078Z,25344
2018-05-19T13:13:15.938Z,19008
2018-05-19T13:14:17.323Z,11876
2018-05-19T13:15:19.259Z,21504
2018-05-19T13:16:20.821Z,17824
2018-05-19T13:17:22.407Z,9104
2018-05-19T13:18:24.051Z,9900
2018-05-19T13:19:25.715Z,25248
2018-05-19T13:20:27.397Z,17792
2018-05-19T13:21:29.045Z,20608
2018-05-19T13:22:30.425Z,24064
2018-05-19T13:23:31.836Z,20480
2018-05-19T13:24:33.233Z,7920
2018-05-19T13:25:34.671Z,7204
2018-05-19T13:26:36.040Z,6976
2018-05-19T13:27:37.444Z,7076
2018-05-19T13:28:38.847Z,6940
2018-05-19T13:29:40.243Z,7200
2018-05-19T13:30:41.645Z,7484
2018-05-19T13:31:43.045Z,7656
2018-05-19T13:32:44.448Z,7760
2018-05-19T13:33:45.898Z,22752
2018-05-19T13:34:47.264Z,18976
2018-05-19T13:35:48.671Z,17280
2018-05-19T13:36:50.073Z,7456
2018-05-19T13:37:51.480Z,13228
2018-05-19T13:38:52.880Z,15904
2018-05-19T13:39:54.283Z,18816
2018-05-19T13:40:55.687Z,23616
2018-05-19T13:41:57.086Z,22528
2018-05-19T13:42:58.493Z,22048
2018-05-19T13:43:59.899Z,21376
2018-05-19T13:45:01.309Z,21472
2018-05-19T13:46:02.720Z,21664
2018-05-19T13:47:04.128Z,21504
2018-05-19T13:48:05.528Z,18432
2018-05-19T13:49:06.958Z,19744
2018-05-19T13:50:08.369Z,20736
2018-05-19T13:51:09.774Z,20960
2018-05-19T13:52:11.256Z,20960
2018-05-19T13:53:12.588Z,20576
2018-05-19T13:54:13.991Z,20416
2018-05-19T13:55:15.396Z,20352
2018-05-19T13:56:16.799Z,19264
2018-05-19T13:57:18.210Z,19584
2018-05-19T13:58:19.613Z,18176